Agra, KS (67621)

5:18 AM CDT on October 25, 2014 (GMT -0500)
Near 14th and K | Change Station
CLOSE
Current Station
Personal Weather Station
Location: Franklin, NE
Elevation: 1850 ft
Nearby Weather Stations

Elev 1850 ft 40.09 °N, 98.95 °W | Updated 5 seconds ago

Clear
Clear
46.6 °F
Feels Like 47 °F
N
0.0
Wind Variable Wind from SE
Gusts 0.0 mph

Today
High -- | Low -- °F
--% Chance of Precip.
Yesterday
High -- | Low -- °F
Precip. -- in
7:57 AM 6:42 PM
New Moon, 2% visible
Pressure 30.06 in
Visibility 10.0 miles
Clouds Clear
Windchill 47 °F
Dew Point 40 °F
Humidity 78%
Rainfall 0.00 in
Snow Depth Not available.
UV 0 out of 12
Pollen 3.60 out of 12
Air Quality Not available.
Flu Activity No Activity
METAR KHDE 250955Z AUTO 00000KT 10SM CLR 05/04 A3006 RMK AO2 T00530038

More Conditions Fewer Conditions

Pressure 30.06 in
Visibility 10.0 miles
Clouds Clear
Windchill 47 °F
Dew Point 40 °F
Humidity 78%
Rainfall 0.00 in
Snow Depth Not available.
UV 0 out of 12
Pollen 3.60 out of 12
Air Quality Not available.
Flu Activity No Activity
METAR KHDE 250955Z AUTO 00000KT 10SM CLR 05/04 A3006 RMK AO2 T00530038

More Conditions Fewer Conditions

10-Day Weather Forecast

Almanac

Astronomy

Oct. 25, 2014 Rise Set
Actual Time 7:57 AM CDT 6:42 PM CDT
Civil Twilight 7:29 AM CDT 7:10 PM CDT
Nautical Twilight 6:58 AM CDT 7:42 PM CDT
Astronomical Twilight 6:26 AM CDT 8:13 PM CDT
Moon 9:37 AM CDT 8:07 PM CDT
Length of Visible Light 11h 40m
Length of Day
10h 45m
Tomorrow will be 2m 24s shorter.
New Moon, 2% of the Moon is Illuminated
Today
New Moon
Oct 30
First Quarter
Nov 6
Full
Nov 14
Last Quarter
Nov 22
New

Today's Extremes

State Highs State Lows

Community

WunderPhotos

Upload Photos

1,764,796 photos uploaded!

Nearby

Snow Depth

Station Depth Elevation
No new snow has been reported.

Earthquake Activity

City Distance Mag. Time & Date
No recent earthquake activity has been reported nearby.
Minimum magnitude displayed is 2.5.

Coastal Water Temperatures

Place Temperature
No Stations Reporting

Nearby Weather Stations